sensor_id;sensor_type;location;lat;lon;timestamp;pressure;altitude;pressure_sealevel;temperature;humidity
27294;BME280;14785;52.556;13.430;2024-03-23T00:56:13;-19671.78;;;9.04;100.00
27294;BME280;14785;52.556;13.430;2024-03-23T00:58:39;-19672.25;;;9.05;100.00
27294;BME280;14785;52.556;13.430;2024-03-23T01:01:05;-19672.69;;;9.07;100.00
27294;BME280;14785;52.556;13.430;2024-03-23T01:03:30;-19684.06;;;9.44;100.00
27294;BME280;14785;52.556;13.430;2024-03-23T01:06:00;-19698.81;;;9.93;100.00
27294;BME280;14785;52.556;13.430;2024-03-23T01:08:25;-19683.16;;;9.41;100.00
27294;BME280;14785;52.556;13.430;2024-03-23T01:11:01;-19687.56;;;9.56;100.00
27294;BME280;14785;52.556;13.430;2024-03-23T01:13:28;-19695.16;;;9.81;100.00
27294;BME280;14785;52.556;13.430;2024-03-23T01:15:55;-19693.03;;;9.74;100.00
27294;BME280;14785;52.556;13.430;2024-03-23T01:18:25;-19697.59;;;9.89;100.00
27294;BME280;14785;52.556;13.430;2024-03-23T01:20:54;-19710.66;;;10.32;100.00
27294;BME280;14785;52.556;13.430;2024-03-23T01:23:20;-19713.06;;;10.40;100.00
27294;BME280;14785;52.556;13.430;2024-03-23T01:25:52;-19687.88;;;9.57;100.00
27294;BME280;14785;52.556;13.430;2024-03-23T01:28:18;-19677.84;;;9.24;100.00
27294;BME280;14785;52.556;13.430;2024-03-23T01:30:43;-19673.75;;;9.10;100.00
27294;BME280;14785;52.556;13.430;2024-03-23T01:33:10;-19670.72;;;9.00;100.00
27294;BME280;14785;52.556;13.430;2024-03-23T01:35:35;-19660.69;;;8.67;100.00
27294;BME280;14785;52.556;13.430;2024-03-23T01:38:00;-19659.78;;;8.64;100.00
27294;BME280;14785;52.556;13.430;2024-03-23T01:40:26;-19678.47;;;9.26;100.00
27294;BME280;14785;52.556;13.430;2024-03-23T01:42:59;-19679.69;;;9.30;100.00
27294;BME280;14785;52.556;13.430;2024-03-23T01:45:27;-19681.19;;;9.35;100.00
27294;BME280;14785;52.556;13.430;2024-03-23T01:47:52;-19694.25;;;9.78;100.00
27294;BME280;14785;52.556;13.430;2024-03-23T01:50:22;-19703.81;;;10.10;100.00
27294;BME280;14785;52.556;13.430;2024-03-23T01:52:49;-19716.56;;;10.52;100.00
27294;BME280;14785;52.556;13.430;2024-03-23T01:55:15;-19704.28;;;10.11;100.00
27294;BME280;14785;52.556;13.430;2024-03-23T01:57:41;-19721.56;;;10.68;100.00
27294;BME280;14785;52.556;13.430;2024-03-23T02:00:07;-19726.25;;;10.84;100.00
27294;BME280;14785;52.556;13.430;2024-03-23T02:02:33;-19719.13;;;10.60;100.00
27294;BME280;14785;52.556;13.430;2024-03-23T02:04:58;-19684.22;;;9.45;100.00
27294;BME280;14785;52.556;13.430;2024-03-23T02:07:24;-19676.19;;;9.18;100.00
27294;BME280;14785;52.556;13.430;2024-03-23T02:09:51;-19673.75;;;9.10;100.00
27294;BME280;14785;52.556;13.430;2024-03-23T02:12:17;-19666.16;;;8.85;100.00
27294;BME280;14785;52.556;13.430;2024-03-23T02:14:43;-19661.91;;;8.71;100.00
27294;BME280;14785;52.556;13.430;2024-03-23T02:17:08;-19659.63;;;8.64;100.00
27294;BME280;14785;52.556;13.430;2024-03-23T02:19:34;-19662.06;;;8.72;100.00
27294;BME280;14785;52.556;13.430;2024-03-23T02:21:59;-19671.78;;;9.04;100.00
27294;BME280;14785;52.556;13.430;2024-03-23T02:24:26;-19661.16;;;8.69;100.00
27294;BME280;14785;52.556;13.430;2024-03-23T02:26:52;-19667.84;;;8.91;100.00
27294;BME280;14785;52.556;13.430;2024-03-23T02:29:18;-19690.31;;;9.65;100.00
27294;BME280;14785;52.556;13.430;2024-03-23T02:31:45;-19703.97;;;10.10;100.00
27294;BME280;14785;52.556;13.430;2024-03-23T02:34:10;-19677.72;;;9.23;100.00
27294;BME280;14785;52.556;13.430;2024-03-23T02:36:36;-19690.16;;;9.64;100.00
27294;BME280;14785;52.556;13.430;2024-03-23T02:39:01;-19703.50;;;10.09;100.00
27294;BME280;14785;52.556;13.430;2024-03-23T02:41:28;-19691.81;;;9.70;100.00
27294;BME280;14785;52.556;13.430;2024-03-23T02:43:53;-19703.97;;;10.10;100.00
27294;BME280;14785;52.556;13.430;2024-03-23T02:46:18;-19716.72;;;10.52;100.00
27294;BME280;14785;52.556;13.430;2024-03-23T02:48:44;-19703.22;;;10.08;100.00
27294;BME280;14785;52.556;13.430;2024-03-23T02:51:11;-19710.66;;;10.32;100.00
27294;BME280;14785;52.556;13.430;2024-03-23T02:53:36;-19707.91;;;10.23;100.00
27294;BME280;14785;52.556;13.430;2024-03-23T02:56:01;-19678.16;;;9.25;100.00
27294;BME280;14785;52.556;13.430;2024-03-23T02:58:27;-19656.00;;;8.52;100.00
27294;BME280;14785;52.556;13.430;2024-03-23T03:00:53;-19659.34;;;8.63;100.00
27294;BME280;14785;52.556;13.430;2024-03-23T03:03:19;-19671.78;;;9.04;100.00
27294;BME280;14785;52.556;13.430;2024-03-23T03:05:44;-19674.53;;;9.13;100.00
27294;BME280;14785;52.556;13.430;2024-03-23T03:08:09;-19672.84;;;9.07;100.00
27294;BME280;14785;52.556;13.430;2024-03-23T03:10:36;-19662.69;;;8.74;100.00
27294;BME280;14785;52.556;13.430;2024-03-23T03:13:01;-19671.47;;;9.03;100.00
27294;BME280;14785;52.556;13.430;2024-03-23T03:15:28;-19665.09;;;8.82;100.00
27294;BME280;14785;52.556;13.430;2024-03-23T03:17:54;-19662.38;;;8.73;100.00
27294;BME280;14785;52.556;13.430;2024-03-23T03:20:21;-19664.19;;;8.79;100.00
27294;BME280;14785;52.556;13.430;2024-03-23T03:22:48;-19682.72;;;9.40;100.00
27294;BME280;14785;52.556;13.430;2024-03-23T03:25:14;-19678.78;;;9.27;100.00
27294;BME280;14785;52.556;13.430;2024-03-23T03:27:39;-19689.09;;;9.61;100.00
27294;BME280;14785;52.556;13.430;2024-03-23T03:30:05;-19697.75;;;9.90;100.00
27294;BME280;14785;52.556;13.430;2024-03-23T03:32:32;-19682.56;;;9.39;100.00
27294;BME280;14785;52.556;13.430;2024-03-23T03:34:58;-19675.44;;;9.16;100.00
27294;BME280;14785;52.556;13.430;2024-03-23T03:37:24;-19665.72;;;8.84;100.00
27294;BME280;14785;52.556;13.430;2024-03-23T03:39:49;-19685.44;;;9.49;100.00
27294;BME280;14785;52.556;13.430;2024-03-23T03:42:15;-19657.06;;;8.55;100.00
27294;BME280;14785;52.556;13.430;2024-03-23T03:44:40;-19648.84;;;8.28;100.00
27294;BME280;14785;52.556;13.430;2024-03-23T03:47:06;-19650.53;;;8.34;100.00
27294;BME280;14785;52.556;13.430;2024-03-23T03:49:32;-19652.97;;;8.42;100.00
27294;BME280;14785;52.556;13.430;2024-03-23T03:51:58;-19653.88;;;8.45;100.00
27294;BME280;14785;52.556;13.430;2024-03-23T03:54:23;-19656.59;;;8.54;100.00
27294;BME280;14785;52.556;13.430;2024-03-23T03:56:49;-19666.63;;;8.87;100.00
27294;BME280;14785;52.556;13.430;2024-03-23T03:59:15;-19653.88;;;8.45;100.00
27294;BME280;14785;52.556;13.430;2024-03-23T04:01:40;-19656.31;;;8.53;100.00
27294;BME280;14785;52.556;13.430;2024-03-23T04:04:05;-19660.84;;;8.68;100.00
27294;BME280;14785;52.556;13.430;2024-03-23T04:06:31;-19652.34;;;8.40;100.00
27294;BME280;14785;52.556;13.430;2024-03-23T04:08:58;-19645.06;;;8.16;100.00
27294;BME280;14785;52.556;13.430;2024-03-23T04:11:23;-19658.41;;;8.60;100.00
27294;BME280;14785;52.556;13.430;2024-03-23T04:13:49;-19645.06;;;8.16;100.00
27294;BME280;14785;52.556;13.430;2024-03-23T04:16:26;-19646.41;;;8.20;100.00
27294;BME280;14785;52.556;13.430;2024-03-23T04:18:51;-19653.88;;;8.45;100.00
27294;BME280;14785;52.556;13.430;2024-03-23T04:21:17;-19649.91;;;8.32;100.00
27294;BME280;14785;52.556;13.430;2024-03-23T04:23:42;-19642.63;;;8.08;100.00
27294;BME280;14785;52.556;13.430;2024-03-23T04:26:08;-19646.56;;;8.21;100.00
27294;BME280;14785;52.556;13.430;2024-03-23T04:28:33;-19635.03;;;7.82;100.00
27294;BME280;14785;52.556;13.430;2024-03-23T04:31:03;-19639.59;;;7.98;100.00
27294;BME280;14785;52.556;13.430;2024-03-23T04:33:32;-19649.31;;;8.30;100.00
27294;BME280;14785;52.556;13.430;2024-03-23T04:35:57;-19661.47;;;8.70;100.00
27294;BME280;14785;52.556;13.430;2024-03-23T04:38:24;-19673.59;;;9.10;100.00
27294;BME280;14785;52.556;13.430;2024-03-23T04:40:59;-19663.88;;;8.78;100.00
27294;BME280;14785;52.556;13.430;2024-03-23T04:43:25;-19656.91;;;8.55;100.00
27294;BME280;14785;52.556;13.430;2024-03-23T04:45:53;-19675.13;;;9.15;100.00
27294;BME280;14785;52.556;13.430;2024-03-23T04:48:22;-19667.84;;;8.91;100.00
27294;BME280;14785;52.556;13.430;2024-03-23T04:50:48;-19678.78;;;9.27;100.00
27294;BME280;14785;52.556;13.430;2024-03-23T04:53:15;-19688.47;;;9.59;100.00
27294;BME280;14785;52.556;13.430;2024-03-23T04:55:42;-19681.81;;;9.37;100.00
27294;BME280;14785;52.556;13.430;2024-03-23T04:58:07;-19650.69;;;8.34;100.00
27294;BME280;14785;52.556;13.430;2024-03-23T05:00:33;-19668.44;;;8.93;100.00
27294;BME280;14785;52.556;13.430;2024-03-23T05:02:58;-19683.78;;;9.43;100.00
27294;BME280;14785;52.556;13.430;2024-03-23T05:05:25;-19669.81;;;8.97;100.00
27294;BME280;14785;52.556;13.430;2024-03-23T05:07:50;-19652.97;;;8.42;100.00
27294;BME280;14785;52.556;13.430;2024-03-23T05:10:15;-19657.50;;;8.57;100.00
27294;BME280;14785;52.556;13.430;2024-03-23T05:12:43;-19661.47;;;8.70;100.00
27294;BME280;14785;52.556;13.430;2024-03-23T05:15:10;-19673.00;;;9.08;100.00
27294;BME280;14785;52.556;13.430;2024-03-23T05:17:37;-19647.78;;;8.25;100.00
27294;BME280;14785;52.556;13.430;2024-03-23T05:20:04;-19652.97;;;8.42;100.00
27294;BME280;14785;52.556;13.430;2024-03-23T05:22:29;-19658.56;;;8.60;100.00
27294;BME280;14785;52.556;13.430;2024-03-23T05:24:55;-19638.81;;;7.95;100.00
27294;BME280;14785;52.556;13.430;2024-03-23T05:27:21;-19652.03;;;8.39;100.00
27294;BME280;14785;52.556;13.430;2024-03-23T05:29:46;-19672.38;;;9.06;100.00
27294;BME280;14785;52.556;13.430;2024-03-23T05:32:12;-19690.00;;;9.64;100.00
27294;BME280;14785;52.556;13.430;2024-03-23T05:34:38;-19695.31;;;9.82;100.00
27294;BME280;14785;52.556;13.430;2024-03-23T05:37:03;-19673.00;;;9.08;100.00
27294;BME280;14785;52.556;13.430;2024-03-23T05:39:30;-19667.84;;;8.91;100.00
27294;BME280;14785;52.556;13.430;2024-03-23T05:41:56;-19640.50;;;8.01;100.00
27294;BME280;14785;52.556;13.430;2024-03-23T05:44:21;-19649.63;;;8.31;100.00
27294;BME280;14785;52.556;13.430;2024-03-23T05:46:48;-19642.00;;;8.06;100.00
27294;BME280;14785;52.556;13.430;2024-03-23T05:49:16;-19630.47;;;7.67;100.00
27294;BME280;14785;52.556;13.430;2024-03-23T05:51:43;-19629.56;;;7.64;100.00
27294;BME280;14785;52.556;13.430;2024-03-23T05:54:08;-19649.31;;;8.30;100.00
27294;BME280;14785;52.556;13.430;2024-03-23T05:56:34;-19674.22;;;9.12;100.00
27294;BME280;14785;52.556;13.430;2024-03-23T05:58:59;-19659.63;;;8.64;100.00
27294;BME280;14785;52.556;13.430;2024-03-23T06:01:24;-19649.63;;;8.31;100.00
27294;BME280;14785;52.556;13.430;2024-03-23T06:03:54;-19676.34;;;9.19;100.00
27294;BME280;14785;52.556;13.430;2024-03-23T06:06:19;-19681.19;;;9.35;100.00
27294;BME280;14785;52.556;13.430;2024-03-23T06:08:44;-19682.25;;;9.38;100.00
27294;BME280;14785;52.556;13.430;2024-03-23T06:11:10;-19686.97;;;9.54;100.00
27294;BME280;14785;52.556;13.430;2024-03-23T06:13:35;-19691.53;;;9.69;100.00
27294;BME280;14785;52.556;13.430;2024-03-23T06:16:01;-19702.00;;;10.04;100.00
27294;BME280;14785;52.556;13.430;2024-03-23T06:18:26;-19691.22;;;9.68;100.00
27294;BME280;14785;52.556;13.430;2024-03-23T06:20:52;-19707.75;;;10.23;100.00
27294;BME280;14785;52.556;13.430;2024-03-23T06:23:18;-19672.09;;;9.05;100.00
27294;BME280;14785;52.556;13.430;2024-03-23T06:25:45;-19660.09;;;8.65;100.00
27294;BME280;14785;52.556;13.430;2024-03-23T06:28:11;-19691.53;;;9.69;100.00
27294;BME280;14785;52.556;13.430;2024-03-23T06:30:36;-19684.53;;;9.46;100.00
27294;BME280;14785;52.556;13.430;2024-03-23T06:33:02;-19672.38;;;9.06;100.00
27294;BME280;14785;52.556;13.430;2024-03-23T06:35:27;-19686.34;;;9.52;100.00
27294;BME280;14785;52.556;13.430;2024-03-23T06:37:52;-19672.09;;;9.05;100.00
27294;BME280;14785;52.556;13.430;2024-03-23T06:40:18;-19650.84;;;8.35;100.00
27294;BME280;14785;52.556;13.430;2024-03-23T06:42:45;-19659.94;;;8.65;100.00
27294;BME280;14785;52.556;13.430;2024-03-23T06:45:12;-19677.25;;;9.22;100.00
27294;BME280;14785;52.556;13.430;2024-03-23T06:47:37;-19673.59;;;9.10;100.00
27294;BME280;14785;52.556;13.430;2024-03-23T06:50:04;-19655.22;;;8.49;100.00
27294;BME280;14785;52.556;13.430;2024-03-23T06:52:30;-19664.50;;;8.80;100.00
27294;BME280;14785;52.556;13.430;2024-03-23T06:54:57;-19672.69;;;9.07;100.00
27294;BME280;14785;52.556;13.430;2024-03-23T06:57:22;-19662.38;;;8.73;100.00
27294;BME280;14785;52.556;13.430;2024-03-23T06:59:48;-19646.56;;;8.21;100.00
27294;BME280;14785;52.556;13.430;2024-03-23T07:02:14;-19646.28;;;8.20;100.00
27294;BME280;14785;52.556;13.430;2024-03-23T07:04:39;-19651.59;;;8.37;100.00
27294;BME280;14785;52.556;13.430;2024-03-23T07:07:06;-19642.31;;;8.07;100.00
27294;BME280;14785;52.556;13.430;2024-03-23T07:09:31;-19645.34;;;8.17;100.00
27294;BME280;14785;52.556;13.430;2024-03-23T07:11:57;-19664.97;;;8.81;100.00
27294;BME280;14785;52.556;13.430;2024-03-23T07:14:24;-19671.03;;;9.01;100.00
27294;BME280;14785;52.556;13.430;2024-03-23T07:16:51;-19646.56;;;8.21;100.00
27294;BME280;14785;52.556;13.430;2024-03-23T07:19:17;-19656.91;;;8.55;100.00
27294;BME280;14785;52.556;13.430;2024-03-23T07:21:46;-19670.88;;;9.01;100.00
27294;BME280;14785;52.556;13.430;2024-03-23T07:24:13;-19673.91;;;9.11;100.00
27294;BME280;14785;52.556;13.430;2024-03-23T07:26:38;-19670.13;;;8.98;100.00
27294;BME280;14785;52.556;13.430;2024-03-23T07:29:05;-19680.75;;;9.33;100.00
27294;BME280;14785;52.556;13.430;2024-03-23T07:31:30;-19672.38;;;9.06;100.00
27294;BME280;14785;52.556;13.430;2024-03-23T07:33:56;-19682.88;;;9.40;100.00
27294;BME280;14785;52.556;13.430;2024-03-23T07:36:21;-19682.88;;;9.40;100.00
27294;BME280;14785;52.556;13.430;2024-03-23T07:38:46;-19696.38;;;9.85;100.00
27294;BME280;14785;52.556;13.430;2024-03-23T07:41:15;-19692.44;;;9.72;100.00
27294;BME280;14785;52.556;13.430;2024-03-23T07:43:44;-19702.44;;;10.05;100.00
27294;BME280;14785;52.556;13.430;2024-03-23T07:46:10;-19685.44;;;9.49;100.00
27294;BME280;14785;52.556;13.430;2024-03-23T07:48:37;-19689.41;;;9.62;100.00
27294;BME280;14785;52.556;13.430;2024-03-23T07:51:08;-19671.47;;;9.03;100.00
27294;BME280;14785;52.556;13.430;2024-03-23T07:53:35;-19654.47;;;8.47;100.00
27294;BME280;14785;52.556;13.430;2024-03-23T07:56:01;-19676.03;;;9.18;100.00
27294;BME280;14785;52.556;13.430;2024-03-23T07:58:27;-19659.94;;;8.65;100.00
27294;BME280;14785;52.556;13.430;2024-03-23T08:00:54;-19682.72;;;9.40;100.00
27294;BME280;14785;52.556;13.430;2024-03-23T08:03:20;-19683.31;;;9.42;100.00
27294;BME280;14785;52.556;13.430;2024-03-23T08:05:48;-19663.88;;;8.78;100.00
27294;BME280;14785;52.556;13.430;2024-03-23T08:08:14;-19663.13;;;8.75;100.00
27294;BME280;14785;52.556;13.430;2024-03-23T08:13:17;-19644.75;;;8.15;100.00
27294;BME280;14785;52.556;13.430;2024-03-23T08:15:42;-19641.72;;;8.05;100.00
27294;BME280;14785;52.556;13.430;2024-03-23T08:18:12;-19650.84;;;8.35;100.00
27294;BME280;14785;52.556;13.430;2024-03-23T08:20:41;-19637.47;;;7.91;100.00
27294;BME280;14785;52.556;13.430;2024-03-23T08:23:07;-19655.09;;;8.49;100.00
27294;BME280;14785;52.556;13.430;2024-03-23T08:25:34;-19661.16;;;8.69;100.00
27294;BME280;14785;52.556;13.430;2024-03-23T08:28:00;-19647.63;;;8.24;100.00
27294;BME280;14785;52.556;13.430;2024-03-23T08:30:25;-19650.53;;;8.34;100.00
27294;BME280;14785;52.556;13.430;2024-03-23T08:32:51;-19651.28;;;8.36;100.00
27294;BME280;14785;52.556;13.430;2024-03-23T08:35:17;-19664.81;;;8.81;100.00
27294;BME280;14785;52.556;13.430;2024-03-23T08:37:42;-19663.28;;;8.76;100.00
27294;BME280;14785;52.556;13.430;2024-03-23T08:40:08;-19657.81;;;8.58;100.00
27294;BME280;14785;52.556;13.430;2024-03-23T08:42:34;-19643.84;;;8.12;100.00
27294;BME280;14785;52.556;13.430;2024-03-23T08:45:00;-19633.50;;;7.77;100.00
27294;BME280;14785;52.556;13.430;2024-03-23T08:47:26;-19634.13;;;7.79;100.00
27294;BME280;14785;52.556;13.430;2024-03-23T08:49:51;-19629.25;;;7.63;100.00
27294;BME280;14785;52.556;13.430;2024-03-23T08:52:17;-19640.50;;;8.01;100.00
27294;BME280;14785;52.556;13.430;2024-03-23T08:54:43;-19602.81;;;6.76;100.00
27294;BME280;14785;52.556;13.430;2024-03-23T08:57:08;-19602.19;;;6.74;100.00
27294;BME280;14785;52.556;13.430;2024-03-23T08:59:34;-19589.13;;;6.31;100.00
27294;BME280;14785;52.556;13.430;2024-03-23T09:01:59;-19587.31;;;6.25;100.00
27294;BME280;14785;52.556;13.430;2024-03-23T09:04:26;-19602.81;;;6.76;100.00
27294;BME280;14785;52.556;13.430;2024-03-23T09:06:51;-19604.31;;;6.81;100.00
27294;BME280;14785;52.556;13.430;2024-03-23T09:09:17;-19608.28;;;6.94;100.00
27294;BME280;14785;52.556;13.430;2024-03-23T09:11:43;-19601.91;;;6.73;100.00
27294;BME280;14785;52.556;13.430;2024-03-23T09:14:09;-19600.69;;;6.69;100.00
27294;BME280;14785;52.556;13.430;2024-03-23T09:16:35;-19606.75;;;6.89;100.00
27294;BME280;14785;52.556;13.430;2024-03-23T09:19:01;-19609.81;;;6.99;100.00
27294;BME280;14785;52.556;13.430;2024-03-23T09:21:28;-19597.63;;;6.59;100.00
27294;BME280;14785;52.556;13.430;2024-03-23T09:23:53;-19613.44;;;7.11;100.00
27294;BME280;14785;52.556;13.430;2024-03-23T09:26:19;-19583.66;;;6.13;100.00
27294;BME280;14785;52.556;13.430;2024-03-23T09:28:48;-19583.97;;;6.14;100.00
27294;BME280;14785;52.556;13.430;2024-03-23T09:31:14;-19595.50;;;6.52;100.00
27294;BME280;14785;52.556;13.430;2024-03-23T09:33:40;-19597.63;;;6.59;100.00
27294;BME280;14785;52.556;13.430;2024-03-23T09:36:06;-19605.84;;;6.86;100.00
27294;BME280;14785;52.556;13.430;2024-03-23T09:38:32;-19614.34;;;7.14;100.00
27294;BME280;14785;52.556;13.430;2024-03-23T09:40:58;-19598.72;;;6.63;100.00
27294;BME280;14785;52.556;13.430;2024-03-23T09:43:25;-19603.72;;;6.79;100.00
27294;BME280;14785;52.556;13.430;2024-03-23T09:45:51;-19584.56;;;6.16;100.00
27294;BME280;14785;52.556;13.430;2024-03-23T09:48:17;-19585.78;;;6.20;100.00
27294;BME280;14785;52.556;13.430;2024-03-23T09:50:44;-19584.56;;;6.16;100.00
27294;BME280;14785;52.556;13.430;2024-03-23T09:53:11;-19586.09;;;6.21;100.00
27294;BME280;14785;52.556;13.430;2024-03-23T09:55:38;-19597.19;;;6.58;100.00
27294;BME280;14785;52.556;13.430;2024-03-23T09:58:05;-19598.09;;;6.61;100.00
27294;BME280;14785;52.556;13.430;2024-03-23T10:00:34;-19594.59;;;6.49;100.00
27294;BME280;14785;52.556;13.430;2024-03-23T10:03:00;-19594.44;;;6.49;100.00
27294;BME280;14785;52.556;13.430;2024-03-23T10:05:30;-19595.22;;;6.51;100.00
27294;BME280;14785;52.556;13.430;2024-03-23T10:10:40;-19597.63;;;6.59;100.00
27294;BME280;14785;52.556;13.430;2024-03-23T10:13:05;-19593.38;;;6.45;100.00
27294;BME280;14785;52.556;13.430;2024-03-23T10:15:34;-19601.13;;;6.71;100.00
27294;BME280;14785;52.556;13.430;2024-03-23T10:18:19;-19601.59;;;6.72;100.00
27294;BME280;14785;52.556;13.430;2024-03-23T10:21:06;-19600.69;;;6.69;100.00
27294;BME280;14785;52.556;13.430;2024-03-23T10:23:39;-19590.03;;;6.34;100.00
27294;BME280;14785;52.556;13.430;2024-03-23T10:26:24;-19582.59;;;6.10;100.00
27294;BME280;14785;52.556;13.430;2024-03-23T10:31:34;-19586.69;;;6.23;100.00
27294;BME280;14785;52.556;13.430;2024-03-23T10:34:03;-19583.81;;;6.14;100.00
27294;BME280;14785;52.556;13.430;2024-03-23T10:36:29;-19586.84;;;6.24;100.00
27294;BME280;14785;52.556;13.430;2024-03-23T10:38:55;-19592.16;;;6.41;100.00
27294;BME280;14785;52.556;13.430;2024-03-23T10:41:41;-19599.00;;;6.64;100.00
27294;BME280;14785;52.556;13.430;2024-03-23T10:44:10;-19591.56;;;6.39;100.00
27294;BME280;14785;52.556;13.430;2024-03-23T10:46:36;-19599.47;;;6.65;100.00
27294;BME280;14785;52.556;13.430;2024-03-23T10:49:03;-19594.28;;;6.48;100.00
27294;BME280;14785;52.556;13.430;2024-03-23T10:51:45;-19596.88;;;6.57;100.00
27294;BME280;14785;52.556;13.430;2024-03-23T10:54:12;-19602.03;;;6.74;100.00
27294;BME280;14785;52.556;13.430;2024-03-23T10:56:39;-19594.59;;;6.49;100.00
27294;BME280;14785;52.556;13.430;2024-03-23T10:59:06;-19596.56;;;6.56;100.00
27294;BME280;14785;52.556;13.430;2024-03-23T11:01:34;-19614.34;;;7.14;100.00
27294;BME280;14785;52.556;13.430;2024-03-23T11:03:59;-19617.09;;;7.23;100.00
27294;BME280;14785;52.556;13.430;2024-03-23T11:06:36;-19610.72;;;7.02;100.00
27294;BME280;14785;52.556;13.430;2024-03-23T11:09:02;-19594.91;;;6.50;100.00
27294;BME280;14785;52.556;13.430;2024-03-23T11:11:27;-19604.03;;;6.80;100.00
27294;BME280;14785;52.556;13.430;2024-03-23T11:13:59;-19614.66;;;7.15;100.00
27294;BME280;14785;52.556;13.430;2024-03-23T11:16:25;-19621.19;;;7.37;100.00
27294;BME280;14785;52.556;13.430;2024-03-23T11:18:54;-19625.91;;;7.52;100.00
27294;BME280;14785;52.556;13.430;2024-03-23T11:21:52;-19642.63;;;8.08;100.00
27294;BME280;14785;52.556;13.430;2024-03-23T11:24:21;-19632.44;;;7.74;100.00
27294;BME280;14785;52.556;13.430;2024-03-23T11:26:51;-19627.88;;;7.59;100.00
27294;BME280;14785;52.556;13.430;2024-03-23T11:29:17;-19607.22;;;6.91;100.00
27294;BME280;14785;52.556;13.430;2024-03-23T11:31:52;-19604.47;;;6.82;100.00
27294;BME280;14785;52.556;13.430;2024-03-23T11:34:19;-19604.78;;;6.83;100.00
27294;BME280;14785;52.556;13.430;2024-03-23T11:36:46;-19604.78;;;6.83;100.00
27294;BME280;14785;52.556;13.430;2024-03-23T11:39:15;-19599.47;;;6.65;100.00
27294;BME280;14785;52.556;13.430;2024-03-23T11:42:00;-19603.88;;;6.80;100.00
27294;BME280;14785;52.556;13.430;2024-03-23T11:44:26;-19606.16;;;6.87;100.00
27294;BME280;14785;52.556;13.430;2024-03-23T11:46:52;-19607.22;;;6.91;100.00
27294;BME280;14785;52.556;13.430;2024-03-23T11:49:25;-19606.47;;;6.88;100.00
27294;BME280;14785;52.556;13.430;2024-03-23T11:51:51;-19608.28;;;6.94;100.00
27294;BME280;14785;52.556;13.430;2024-03-23T11:54:20;-19614.34;;;7.14;100.00
27294;BME280;14785;52.556;13.430;2024-03-23T11:57:04;-19622.25;;;7.40;100.00
27294;BME280;14785;52.556;13.430;2024-03-23T11:59:39;-19625.00;;;7.49;100.00
27294;BME280;14785;52.556;13.430;2024-03-23T12:02:09;-19622.56;;;7.41;100.00
27294;BME280;14785;52.556;13.430;2024-03-23T12:04:40;-19626.22;;;7.53;100.00
27294;BME280;14785;52.556;13.430;2024-03-23T12:07:16;-19631.84;;;7.72;100.00
27294;BME280;14785;52.556;13.430;2024-03-23T12:09:46;-19620.44;;;7.34;100.00
27294;BME280;14785;52.556;13.430;2024-03-23T12:12:18;-19616.19;;;7.20;100.00
27294;BME280;14785;52.556;13.430;2024-03-23T12:15:04;-19613.75;;;7.12;100.00
27294;BME280;14785;52.556;13.430;2024-03-23T12:17:31;-19631.38;;;7.70;100.00
27294;BME280;14785;52.556;13.430;2024-03-23T12:19:57;-19636.53;;;7.88;100.00
27294;BME280;14785;52.556;13.430;2024-03-23T12:22:23;-19627.72;;;7.58;100.00
27294;BME280;14785;52.556;13.430;2024-03-23T12:24:49;-19636.53;;;7.88;100.00
27294;BME280;14785;52.556;13.430;2024-03-23T12:27:14;-19653.41;;;8.43;100.00
27294;BME280;14785;52.556;13.430;2024-03-23T12:29:42;-19625.31;;;7.50;100.00
27294;BME280;14785;52.556;13.430;2024-03-23T12:32:10;-19634.25;;;7.80;100.00
27294;BME280;14785;52.556;13.430;2024-03-23T12:34:35;-19621.97;;;7.39;100.00
27294;BME280;14785;52.556;13.430;2024-03-23T12:37:01;-19638.69;;;7.95;100.00
27294;BME280;14785;52.556;13.430;2024-03-23T12:39:26;-19626.81;;;7.55;100.00
27294;BME280;14785;52.556;13.430;2024-03-23T12:41:52;-19641.41;;;8.04;100.00
27294;BME280;14785;52.556;13.430;2024-03-23T12:44:37;-19652.34;;;8.40;100.00
27294;BME280;14785;52.556;13.430;2024-03-23T12:47:03;-19639.88;;;7.99;100.00
27294;BME280;14785;52.556;13.430;2024-03-23T12:49:28;-19629.56;;;7.64;100.00
27294;BME280;14785;52.556;13.430;2024-03-23T12:51:56;-19624.09;;;7.46;100.00
27294;BME280;14785;52.556;13.430;2024-03-23T12:54:22;-19623.63;;;7.45;100.00
27294;BME280;14785;52.556;13.430;2024-03-23T12:56:49;-19628.03;;;7.59;100.00
27294;BME280;14785;52.556;13.430;2024-03-23T12:59:15;-19630.16;;;7.66;100.00
27294;BME280;14785;52.556;13.430;2024-03-23T13:01:42;-19635.94;;;7.86;100.00
27294;BME280;14785;52.556;13.430;2024-03-23T13:04:08;-19634.56;;;7.81;100.00
27294;BME280;14785;52.556;13.430;2024-03-23T13:06:34;-19632.91;;;7.75;100.00
27294;BME280;14785;52.556;13.430;2024-03-23T13:09:01;-19645.50;;;8.17;100.00
27294;BME280;14785;52.556;13.430;2024-03-23T13:11:28;-19633.34;;;7.77;100.00
27294;BME280;14785;52.556;13.430;2024-03-23T13:13:53;-19645.66;;;8.18;100.00
27294;BME280;14785;52.556;13.430;2024-03-23T13:16:19;-19639.13;;;7.96;100.00
27294;BME280;14785;52.556;13.430;2024-03-23T13:18:44;-19636.53;;;7.88;100.00
27294;BME280;14785;52.556;13.430;2024-03-23T13:21:10;-19648.41;;;8.27;100.00
27294;BME280;14785;52.556;13.430;2024-03-23T13:23:36;-19646.88;;;8.22;100.00
27294;BME280;14785;52.556;13.430;2024-03-23T13:26:03;-19653.25;;;8.43;100.00
27294;BME280;14785;52.556;13.430;2024-03-23T13:28:30;-19670.88;;;9.01;100.00
27294;BME280;14785;52.556;13.430;2024-03-23T13:30:56;-19678.78;;;9.27;100.00
27294;BME280;14785;52.556;13.430;2024-03-23T13:33:30;-19680.59;;;9.33;100.00
27294;BME280;14785;52.556;13.430;2024-03-23T13:35:57;-19682.09;;;9.38;100.00
27294;BME280;14785;52.556;13.430;2024-03-23T13:38:23;-19713.84;;;10.43;100.00
27294;BME280;14785;52.556;13.430;2024-03-23T13:40:53;-19724.28;;;10.77;100.00
27294;BME280;14785;52.556;13.430;2024-03-23T13:43:19;-19728.53;;;10.91;100.00